sensor_id;sensor_type;location;lat;lon;timestamp;pressure;altitude;pressure_sealevel;temperature;humidity
62508;BME280;48556;51.972;4.624;2022-08-19T00:01:29;101468.28;;;24.00;59.95
62508;BME280;48556;51.972;4.624;2022-08-19T00:04:01;101461.94;;;24.01;60.07
62508;BME280;48556;51.972;4.624;2022-08-19T00:06:28;101456.41;;;24.04;59.99
62508;BME280;48556;51.972;4.624;2022-08-19T00:08:56;101449.31;;;24.03;59.87
62508;BME280;48556;51.972;4.624;2022-08-19T00:11:23;101450.34;;;24.01;59.75
62508;BME280;48556;51.972;4.624;2022-08-19T00:13:49;101452.19;;;23.68;60.14
62508;BME280;48556;51.972;4.624;2022-08-19T00:16:19;101458.88;;;23.93;59.34
62508;BME280;48556;51.972;4.624;2022-08-19T00:18:47;101459.69;;;24.10;58.75
62508;BME280;48556;51.972;4.624;2022-08-19T00:21:13;101464.91;;;23.97;59.25
62508;BME280;48556;51.972;4.624;2022-08-19T00:23:39;101470.75;;;23.89;59.23
62508;BME280;48556;51.972;4.624;2022-08-19T00:26:07;101462.50;;;23.92;59.56
62508;BME280;48556;51.972;4.624;2022-08-19T00:28:33;101467.34;;;23.85;59.66
62508;BME280;48556;51.972;4.624;2022-08-19T00:31:02;101457.81;;;23.80;59.67
62508;BME280;48556;51.972;4.624;2022-08-19T00:33:29;101468.06;;;23.89;59.24
62508;BME280;48556;51.972;4.624;2022-08-19T00:36:02;101460.41;;;23.81;59.33
62508;BME280;48556;51.972;4.624;2022-08-19T00:38:29;101461.09;;;23.69;59.83
62508;BME280;48556;51.972;4.624;2022-08-19T00:40:55;101455.66;;;23.70;59.89
62508;BME280;48556;51.972;4.624;2022-08-19T00:43:24;101452.53;;;23.78;59.92
62508;BME280;48556;51.972;4.624;2022-08-19T00:45:50;101455.22;;;23.62;60.71
62508;BME280;48556;51.972;4.624;2022-08-19T00:48:18;101448.63;;;23.68;60.92
62508;BME280;48556;51.972;4.624;2022-08-19T00:50:45;101449.34;;;23.71;60.63
62508;BME280;48556;51.972;4.624;2022-08-19T00:53:16;101450.41;;;23.53;61.06
62508;BME280;48556;51.972;4.624;2022-08-19T00:55:46;101457.47;;;23.70;60.06
62508;BME280;48556;51.972;4.624;2022-08-19T00:58:17;101453.16;;;23.67;60.59
62508;BME280;48556;51.972;4.624;2022-08-19T01:00:44;101457.91;;;23.62;60.76
62508;BME280;48556;51.972;4.624;2022-08-19T01:03:14;101459.66;;;23.63;60.70
62508;BME280;48556;51.972;4.624;2022-08-19T01:05:42;101472.88;;;23.66;60.81
62508;BME280;48556;51.972;4.624;2022-08-19T01:08:09;101471.19;;;23.65;60.84
62508;BME280;48556;51.972;4.624;2022-08-19T01:10:51;101470.81;;;23.71;60.40
62508;BME280;48556;51.972;4.624;2022-08-19T01:13:22;101472.72;;;23.69;60.48
62508;BME280;48556;51.972;4.624;2022-08-19T01:15:54;101463.56;;;23.58;60.68
62508;BME280;48556;51.972;4.624;2022-08-19T01:18:23;101464.59;;;23.71;60.42
62508;BME280;48556;51.972;4.624;2022-08-19T01:20:52;101465.72;;;23.51;60.70
62508;BME280;48556;51.972;4.624;2022-08-19T01:23:19;101463.38;;;23.45;60.97
62508;BME280;48556;51.972;4.624;2022-08-19T01:25:49;101458.63;;;23.50;61.03
62508;BME280;48556;51.972;4.624;2022-08-19T01:28:23;101460.78;;;23.59;60.83
62508;BME280;48556;51.972;4.624;2022-08-19T01:30:51;101454.28;;;23.63;60.35
62508;BME280;48556;51.972;4.624;2022-08-19T01:33:17;101460.16;;;23.70;59.86
62508;BME280;48556;51.972;4.624;2022-08-19T01:35:45;101467.69;;;23.63;60.21
62508;BME280;48556;51.972;4.624;2022-08-19T01:38:22;101462.50;;;23.60;60.36
62508;BME280;48556;51.972;4.624;2022-08-19T01:40:48;101467.00;;;23.76;59.85
62508;BME280;48556;51.972;4.624;2022-08-19T01:43:17;101472.00;;;23.82;59.52
62508;BME280;48556;51.972;4.624;2022-08-19T01:45:45;101464.34;;;23.60;60.31
62508;BME280;48556;51.972;4.624;2022-08-19T01:48:12;101475.13;;;23.58;60.10
62508;BME280;48556;51.972;4.624;2022-08-19T01:50:40;101469.06;;;23.70;59.67
62508;BME280;48556;51.972;4.624;2022-08-19T01:53:10;101470.81;;;23.71;59.63
62508;BME280;48556;51.972;4.624;2022-08-19T01:55:40;101464.59;;;23.55;60.24
62508;BME280;48556;51.972;4.624;2022-08-19T01:58:12;101458.34;;;23.54;59.96
62508;BME280;48556;51.972;4.624;2022-08-19T02:00:42;101455.59;;;23.56;59.61
62508;BME280;48556;51.972;4.624;2022-08-19T02:03:09;101454.53;;;23.75;58.96
62508;BME280;48556;51.972;4.624;2022-08-19T02:05:36;101460.69;;;23.61;59.55
62508;BME280;48556;51.972;4.624;2022-08-19T02:08:02;101461.66;;;23.44;59.89
62508;BME280;48556;51.972;4.624;2022-08-19T02:10:28;101465.03;;;23.47;60.08
62508;BME280;48556;51.972;4.624;2022-08-19T02:12:53;101471.16;;;23.49;60.02
62508;BME280;48556;51.972;4.624;2022-08-19T02:15:19;101462.00;;;23.37;60.10
62508;BME280;48556;51.972;4.624;2022-08-19T02:17:47;101476.19;;;23.40;60.26
62508;BME280;48556;51.972;4.624;2022-08-19T02:20:16;101479.41;;;23.46;59.99
62508;BME280;48556;51.972;4.624;2022-08-19T02:22:43;101463.03;;;23.51;59.73
62508;BME280;48556;51.972;4.624;2022-08-19T02:25:11;101462.00;;;23.37;60.11
62508;BME280;48556;51.972;4.624;2022-08-19T02:27:40;101457.75;;;23.33;60.39
62508;BME280;48556;51.972;4.624;2022-08-19T02:30:10;101453.88;;;23.39;60.07
62508;BME280;48556;51.972;4.624;2022-08-19T02:32:36;101455.59;;;23.40;60.38
62508;BME280;48556;51.972;4.624;2022-08-19T02:35:02;101465.13;;;23.46;60.08
62508;BME280;48556;51.972;4.624;2022-08-19T02:37:28;101466.69;;;23.50;59.87
62508;BME280;48556;51.972;4.624;2022-08-19T02:40:12;101462.94;;;23.36;60.44
62508;BME280;48556;51.972;4.624;2022-08-19T02:42:38;101458.28;;;23.40;60.24
62508;BME280;48556;51.972;4.624;2022-08-19T02:45:07;101450.91;;;23.44;60.19
62508;BME280;48556;51.972;4.624;2022-08-19T02:47:33;101450.59;;;23.50;60.11
62508;BME280;48556;51.972;4.624;2022-08-19T02:50:01;101442.59;;;23.32;60.35
62508;BME280;48556;51.972;4.624;2022-08-19T02:52:27;101432.50;;;23.37;60.52
62508;BME280;48556;51.972;4.624;2022-08-19T02:54:54;101435.84;;;23.25;61.02
62508;BME280;48556;51.972;4.624;2022-08-19T02:57:23;101434.81;;;23.28;61.08
62508;BME280;48556;51.972;4.624;2022-08-19T03:03:16;101439.75;;;23.19;61.43
62508;BME280;48556;51.972;4.624;2022-08-19T03:05:43;101428.25;;;23.33;61.01
62508;BME280;48556;51.972;4.624;2022-08-19T03:08:13;101441.91;;;23.29;61.20
62508;BME280;48556;51.972;4.624;2022-08-19T03:10:46;101442.25;;;23.38;61.07
62508;BME280;48556;51.972;4.624;2022-08-19T03:13:18;101433.25;;;23.24;61.67
62508;BME280;48556;51.972;4.624;2022-08-19T03:15:46;101433.09;;;23.27;61.50
62508;BME280;48556;51.972;4.624;2022-08-19T03:18:13;101435.78;;;23.27;61.37
62508;BME280;48556;51.972;4.624;2022-08-19T03:20:44;101426.50;;;23.32;61.08
62508;BME280;48556;51.972;4.624;2022-08-19T03:23:10;101426.81;;;23.10;61.88
62508;BME280;48556;51.972;4.624;2022-08-19T03:25:46;101425.13;;;23.25;61.49
62508;BME280;48556;51.972;4.624;2022-08-19T03:28:14;101419.94;;;23.22;61.33
62508;BME280;48556;51.972;4.624;2022-08-19T03:30:41;101425.88;;;23.11;61.96
62508;BME280;48556;51.972;4.624;2022-08-19T03:33:08;101414.50;;;23.24;61.27
62508;BME280;48556;51.972;4.624;2022-08-19T03:35:35;101418.03;;;23.24;61.52
62508;BME280;48556;51.972;4.624;2022-08-19T03:38:05;101420.28;;;23.32;61.05
62508;BME280;48556;51.972;4.624;2022-08-19T03:40:35;101425.41;;;23.03;61.72
62508;BME280;48556;51.972;4.624;2022-08-19T03:43:02;101421.22;;;23.15;61.63
62508;BME280;48556;51.972;4.624;2022-08-19T03:45:27;101421.72;;;23.06;62.06
62508;BME280;48556;51.972;4.624;2022-08-19T03:47:53;101425.34;;;22.71;63.22
62508;BME280;48556;51.972;4.624;2022-08-19T03:50:19;101427.28;;;22.85;62.51
62508;BME280;48556;51.972;4.624;2022-08-19T03:52:49;101425.56;;;22.84;62.95
62508;BME280;48556;51.972;4.624;2022-08-19T03:55:16;101431.38;;;22.92;62.62
62508;BME280;48556;51.972;4.624;2022-08-19T03:57:42;101425.91;;;22.94;62.58
62508;BME280;48556;51.972;4.624;2022-08-19T04:00:08;101428.84;;;22.89;62.68
62508;BME280;48556;51.972;4.624;2022-08-19T04:02:34;101441.25;;;22.74;63.03
62508;BME280;48556;51.972;4.624;2022-08-19T04:05:00;101440.03;;;22.64;64.15
62508;BME280;48556;51.972;4.624;2022-08-19T04:07:25;101443.06;;;22.40;64.69
62508;BME280;48556;51.972;4.624;2022-08-19T04:09:51;101442.81;;;22.45;64.80
62508;BME280;48556;51.972;4.624;2022-08-19T04:12:18;101440.81;;;22.31;65.79
62508;BME280;48556;51.972;4.624;2022-08-19T04:14:46;101444.81;;;22.05;66.61
62508;BME280;48556;51.972;4.624;2022-08-19T04:17:12;101441.38;;;22.02;67.18
62508;BME280;48556;51.972;4.624;2022-08-19T04:19:39;101441.69;;;21.41;70.03
62508;BME280;48556;51.972;4.624;2022-08-19T04:22:05;101446.69;;;21.29;70.18
62508;BME280;48556;51.972;4.624;2022-08-19T04:24:33;101442.06;;;21.52;69.63
62508;BME280;48556;51.972;4.624;2022-08-19T04:27:00;101440.53;;;21.27;70.49
62508;BME280;48556;51.972;4.624;2022-08-19T04:29:27;101440.81;;;21.40;70.10
62508;BME280;48556;51.972;4.624;2022-08-19T04:31:54;101449.06;;;21.36;70.35
62508;BME280;48556;51.972;4.624;2022-08-19T04:34:22;101440.03;;;21.19;70.96
62508;BME280;48556;51.972;4.624;2022-08-19T04:36:49;101440.69;;;21.24;71.12
62508;BME280;48556;51.972;4.624;2022-08-19T04:39:21;101440.47;;;21.29;70.93
62508;BME280;48556;51.972;4.624;2022-08-19T04:41:46;101443.22;;;21.27;70.65
62508;BME280;48556;51.972;4.624;2022-08-19T04:44:32;101447.91;;;21.22;70.64
62508;BME280;48556;51.972;4.624;2022-08-19T04:47:03;101455.28;;;21.36;70.41
62508;BME280;48556;51.972;4.624;2022-08-19T04:49:30;101449.13;;;21.34;70.58
62508;BME280;48556;51.972;4.624;2022-08-19T04:51:56;101449.94;;;21.17;71.20
62508;BME280;48556;51.972;4.624;2022-08-19T04:54:24;101446.25;;;21.39;70.65
62508;BME280;48556;51.972;4.624;2022-08-19T04:56:51;101442.69;;;21.57;70.11
62508;BME280;48556;51.972;4.624;2022-08-19T04:59:18;101454.69;;;21.48;70.38
62508;BME280;48556;51.972;4.624;2022-08-19T05:01:47;101456.78;;;21.80;69.62
62508;BME280;48556;51.972;4.624;2022-08-19T05:04:16;101449.34;;;21.48;69.87
62508;BME280;48556;51.972;4.624;2022-08-19T05:06:43;101457.19;;;21.53;70.54
62508;BME280;48556;51.972;4.624;2022-08-19T05:09:08;101456.28;;;21.33;71.20
62508;BME280;48556;51.972;4.624;2022-08-19T05:11:36;101462.38;;;21.37;71.16
62508;BME280;48556;51.972;4.624;2022-08-19T05:14:09;101461.72;;;21.70;70.18
62508;BME280;48556;51.972;4.624;2022-08-19T05:16:40;101455.78;;;22.00;69.12
62508;BME280;48556;51.972;4.624;2022-08-19T05:19:05;101457.28;;;21.50;70.67
62508;BME280;48556;51.972;4.624;2022-08-19T05:21:49;101447.41;;;21.89;69.97
62508;BME280;48556;51.972;4.624;2022-08-19T05:24:33;101451.91;;;21.88;69.47
62508;BME280;48556;51.972;4.624;2022-08-19T05:27:00;101459.31;;;22.00;68.65
62508;BME280;48556;51.972;4.624;2022-08-19T05:29:29;101456.63;;;22.37;68.24
62508;BME280;48556;51.972;4.624;2022-08-19T05:31:57;101456.72;;;22.35;67.41
62508;BME280;48556;51.972;4.624;2022-08-19T05:34:26;101456.50;;;22.56;67.24
62508;BME280;48556;51.972;4.624;2022-08-19T05:37:05;101453.19;;;22.68;67.01
62508;BME280;48556;51.972;4.624;2022-08-19T05:39:39;101452.94;;;22.40;67.30
62508;BME280;48556;51.972;4.624;2022-08-19T05:42:12;101446.50;;;22.60;67.22
62508;BME280;48556;51.972;4.624;2022-08-19T05:44:43;101454.47;;;22.95;66.37
62508;BME280;48556;51.972;4.624;2022-08-19T05:47:15;101451.25;;;23.21;65.32
62508;BME280;48556;51.972;4.624;2022-08-19T05:49:45;101454.56;;;22.93;65.68
62508;BME280;48556;51.972;4.624;2022-08-19T05:52:13;101457.91;;;23.14;65.12
62508;BME280;48556;51.972;4.624;2022-08-19T05:54:46;101458.59;;;22.51;66.82
62508;BME280;48556;51.972;4.624;2022-08-19T05:57:13;101455.91;;;22.51;67.57
62508;BME280;48556;51.972;4.624;2022-08-19T05:59:54;101452.81;;;22.59;67.56
62508;BME280;48556;51.972;4.624;2022-08-19T06:02:56;101453.97;;;23.04;66.33
62508;BME280;48556;51.972;4.624;2022-08-19T06:05:29;101458.88;;;23.29;65.55
62508;BME280;48556;51.972;4.624;2022-08-19T06:07:56;101447.44;;;22.92;66.33
62508;BME280;48556;51.972;4.624;2022-08-19T06:10:22;101454.28;;;23.31;65.38
62508;BME280;48556;51.972;4.624;2022-08-19T06:12:48;101444.16;;;23.36;65.40
62508;BME280;48556;51.972;4.624;2022-08-19T06:15:20;101447.63;;;23.38;65.12
62508;BME280;48556;51.972;4.624;2022-08-19T06:17:52;101455.94;;;23.18;65.42
62508;BME280;48556;51.972;4.624;2022-08-19T06:20:17;101458.19;;;23.42;65.13
62508;BME280;48556;51.972;4.624;2022-08-19T06:22:48;101455.31;;;23.13;65.51
62508;BME280;48556;51.972;4.624;2022-08-19T06:25:38;101462.25;;;23.17;65.24
62508;BME280;48556;51.972;4.624;2022-08-19T06:28:18;101459.31;;;23.53;64.75
62508;BME280;48556;51.972;4.624;2022-08-19T06:30:58;101465.69;;;23.19;65.55
62508;BME280;48556;51.972;4.624;2022-08-19T06:33:24;101457.72;;;22.84;66.27
62508;BME280;48556;51.972;4.624;2022-08-19T06:35:53;101455.69;;;23.05;66.10
62508;BME280;48556;51.972;4.624;2022-08-19T06:38:38;101456.06;;;23.15;65.61
62508;BME280;48556;51.972;4.624;2022-08-19T06:41:16;101456.94;;;22.48;67.99
62508;BME280;48556;51.972;4.624;2022-08-19T06:43:54;101450.72;;;23.15;66.59
62508;BME280;48556;51.972;4.624;2022-08-19T06:46:35;101446.81;;;22.87;67.31
62508;BME280;48556;51.972;4.624;2022-08-19T06:49:02;101447.28;;;22.95;66.78
62508;BME280;48556;51.972;4.624;2022-08-19T06:51:30;101457.91;;;22.81;67.72
62508;BME280;48556;51.972;4.624;2022-08-19T06:54:00;101452.19;;;22.87;67.51
62508;BME280;48556;51.972;4.624;2022-08-19T06:56:31;101457.91;;;22.97;67.04
62508;BME280;48556;51.972;4.624;2022-08-19T06:59:10;101469.09;;;22.72;67.96
62508;BME280;48556;51.972;4.624;2022-08-19T07:01:46;101467.50;;;23.18;67.08
62508;BME280;48556;51.972;4.624;2022-08-19T07:04:38;101464.06;;;23.32;66.33
62508;BME280;48556;51.972;4.624;2022-08-19T07:10:42;101475.78;;;23.47;66.14
62508;BME280;48556;51.972;4.624;2022-08-19T07:13:08;101481.72;;;23.36;65.93
62508;BME280;48556;51.972;4.624;2022-08-19T07:15:35;101486.41;;;23.49;65.68
62508;BME280;48556;51.972;4.624;2022-08-19T07:18:08;101486.16;;;23.37;65.05
62508;BME280;48556;51.972;4.624;2022-08-19T07:20:36;101487.78;;;23.24;66.30
62508;BME280;48556;51.972;4.624;2022-08-19T07:23:03;101482.25;;;23.59;65.53
62508;BME280;48556;51.972;4.624;2022-08-19T07:25:36;101479.09;;;24.15;63.81
62508;BME280;48556;51.972;4.624;2022-08-19T07:28:05;101472.66;;;24.48;63.37
62508;BME280;48556;51.972;4.624;2022-08-19T07:30:36;101473.41;;;24.50;62.22
62508;BME280;48556;51.972;4.624;2022-08-19T07:33:23;101475.00;;;24.68;61.75
62508;BME280;48556;51.972;4.624;2022-08-19T07:35:49;101477.22;;;24.76;61.70
62508;BME280;48556;51.972;4.624;2022-08-19T07:38:17;101474.28;;;24.50;62.01
62508;BME280;48556;51.972;4.624;2022-08-19T07:40:51;101486.09;;;24.48;62.18
62508;BME280;48556;51.972;4.624;2022-08-19T07:43:21;101479.56;;;24.52;62.11
62508;BME280;48556;51.972;4.624;2022-08-19T07:45:55;101481.66;;;24.32;62.64
62508;BME280;48556;51.972;4.624;2022-08-19T07:48:26;101478.06;;;24.62;62.11
62508;BME280;48556;51.972;4.624;2022-08-19T07:50:57;101477.44;;;24.87;60.74
62508;BME280;48556;51.972;4.624;2022-08-19T07:53:34;101481.34;;;24.82;61.26
62508;BME280;48556;51.972;4.624;2022-08-19T07:56:00;101489.22;;;24.85;60.96
62508;BME280;48556;51.972;4.624;2022-08-19T07:58:32;101487.69;;;24.36;61.96
62508;BME280;48556;51.972;4.624;2022-08-19T08:00:59;101494.81;;;24.82;61.23
62508;BME280;48556;51.972;4.624;2022-08-19T08:03:37;101504.41;;;24.71;61.72
62508;BME280;48556;51.972;4.624;2022-08-19T08:06:35;101510.41;;;24.30;61.91
62508;BME280;48556;51.972;4.624;2022-08-19T08:09:27;101506.06;;;24.44;62.41
62508;BME280;48556;51.972;4.624;2022-08-19T08:12:08;101502.13;;;24.19;62.83
62508;BME280;48556;51.972;4.624;2022-08-19T08:18:15;101496.53;;;24.83;61.70
62508;BME280;48556;51.972;4.624;2022-08-19T08:20:51;101510.69;;;24.56;61.87
62508;BME280;48556;51.972;4.624;2022-08-19T08:23:17;101507.00;;;24.73;61.51
62508;BME280;48556;51.972;4.624;2022-08-19T08:25:57;101500.38;;;24.79;61.53
62508;BME280;48556;51.972;4.624;2022-08-19T08:28:29;101510.50;;;24.59;62.33
62508;BME280;48556;51.972;4.624;2022-08-19T08:31:13;101517.63;;;24.60;61.38
62508;BME280;48556;51.972;4.624;2022-08-19T08:33:50;101514.59;;;24.81;61.43
62508;BME280;48556;51.972;4.624;2022-08-19T08:36:15;101511.63;;;25.14;60.46
62508;BME280;48556;51.972;4.624;2022-08-19T08:38:43;101516.81;;;25.32;60.00
62508;BME280;48556;51.972;4.624;2022-08-19T08:44:01;101526.06;;;25.42;59.08
62508;BME280;48556;51.972;4.624;2022-08-19T08:46:48;101524.63;;;25.78;58.44
62508;BME280;48556;51.972;4.624;2022-08-19T08:52:05;101524.19;;;25.99;57.56
62508;BME280;48556;51.972;4.624;2022-08-19T08:54:44;101517.44;;;26.33;56.46
62508;BME280;48556;51.972;4.624;2022-08-19T08:57:24;101522.72;;;25.80;57.64
62508;BME280;48556;51.972;4.624;2022-08-19T08:59:57;101531.66;;;26.35;56.68
62508;BME280;48556;51.972;4.624;2022-08-19T09:02:34;101530.84;;;25.93;57.33
62508;BME280;48556;51.972;4.624;2022-08-19T09:05:00;101531.63;;;25.39;58.80
62508;BME280;48556;51.972;4.624;2022-08-19T09:07:51;101518.09;;;25.82;58.04
62508;BME280;48556;51.972;4.624;2022-08-19T09:10:28;101523.94;;;25.89;57.70
62508;BME280;48556;51.972;4.624;2022-08-19T09:16:22;101527.53;;;26.17;57.41
62508;BME280;48556;51.972;4.624;2022-08-19T09:19:12;101522.75;;;26.07;57.35
62508;BME280;48556;51.972;4.624;2022-08-19T09:21:38;101530.84;;;26.20;56.92
62508;BME280;48556;51.972;4.624;2022-08-19T09:24:04;101527.38;;;25.91;57.80
62508;BME280;48556;51.972;4.624;2022-08-19T09:26:39;101528.56;;;26.01;57.14
62508;BME280;48556;51.972;4.624;2022-08-19T09:29:07;101532.34;;;26.52;56.12
62508;BME280;48556;51.972;4.624;2022-08-19T09:31:34;101529.41;;;26.82;55.21
62508;BME280;48556;51.972;4.624;2022-08-19T09:34:00;101531.91;;;26.58;55.93
62508;BME280;48556;51.972;4.624;2022-08-19T09:36:27;101519.13;;;26.74;55.18
62508;BME280;48556;51.972;4.624;2022-08-19T09:39:07;101520.03;;;27.63;52.98
62508;BME280;48556;51.972;4.624;2022-08-19T09:41:32;101524.00;;;27.71;51.96
62508;BME280;48556;51.972;4.624;2022-08-19T09:43:59;101520.75;;;27.16;52.28
62508;BME280;48556;51.972;4.624;2022-08-19T09:46:37;101528.16;;;27.51;52.46
62508;BME280;48556;51.972;4.624;2022-08-19T09:49:03;101527.66;;;27.20;53.37
62508;BME280;48556;51.972;4.624;2022-08-19T09:52:00;101519.44;;;27.08;53.97
62508;BME280;48556;51.972;4.624;2022-08-19T09:54:40;101534.00;;;26.93;54.85
62508;BME280;48556;51.972;4.624;2022-08-19T09:57:17;101531.03;;;26.44;55.13
62508;BME280;48556;51.972;4.624;2022-08-19T09:59:43;101531.91;;;26.58;55.37
62508;BME280;48556;51.972;4.624;2022-08-19T10:02:10;101538.47;;;26.54;55.72
62508;BME280;48556;51.972;4.624;2022-08-19T10:04:36;101535.53;;;26.31;57.00
62508;BME280;48556;51.972;4.624;2022-08-19T10:07:27;101536.31;;;26.06;57.15
62508;BME280;48556;51.972;4.624;2022-08-19T10:10:23;101536.03;;;25.96;57.64
62508;BME280;48556;51.972;4.624;2022-08-19T10:12:49;101536.31;;;26.06;57.61
62508;BME280;48556;51.972;4.624;2022-08-19T10:15:18;101530.63;;;25.96;57.29
62508;BME280;48556;51.972;4.624;2022-08-19T10:17:48;101538.25;;;25.62;58.65
62508;BME280;48556;51.972;4.624;2022-08-19T10:20:17;101536.31;;;26.33;56.78
62508;BME280;48556;51.972;4.624;2022-08-19T10:22:43;101523.56;;;26.88;55.03
62508;BME280;48556;51.972;4.624;2022-08-19T10:28:48;101521.41;;;27.06;53.79
62508;BME280;48556;51.972;4.624;2022-08-19T10:31:22;101525.25;;;27.28;53.08
62508;BME280;48556;51.972;4.624;2022-08-19T10:33:50;101519.66;;;27.31;53.20
62508;BME280;48556;51.972;4.624;2022-08-19T10:36:25;101519.63;;;27.18;53.40
62508;BME280;48556;51.972;4.624;2022-08-19T10:38:56;101520.50;;;27.44;52.44
62508;BME280;48556;51.972;4.624;2022-08-19T10:41:30;101524.72;;;27.23;52.88
62508;BME280;48556;51.972;4.624;2022-08-19T10:44:03;101525.84;;;27.07;52.61
62508;BME280;48556;51.972;4.624;2022-08-19T10:46:35;101518.56;;;27.34;51.67
62508;BME280;48556;51.972;4.624;2022-08-19T10:49:03;101525.50;;;27.75;51.07
62508;BME280;48556;51.972;4.624;2022-08-19T10:51:30;101520.53;;;28.06;49.68
62508;BME280;48556;51.972;4.624;2022-08-19T10:54:18;101512.97;;;27.98;49.16
62508;BME280;48556;51.972;4.624;2022-08-19T10:56:43;101511.91;;;28.01;49.11
62508;BME280;48556;51.972;4.624;2022-08-19T10:59:27;101510.97;;;28.48;47.07
62508;BME280;48556;51.972;4.624;2022-08-19T11:01:59;101518.13;;;28.50;47.39
62508;BME280;48556;51.972;4.624;2022-08-19T11:04:25;101512.84;;;28.59;46.67
62508;BME280;48556;51.972;4.624;2022-08-19T11:06:51;101511.72;;;27.91;47.71
62508;BME280;48556;51.972;4.624;2022-08-19T11:09:23;101516.66;;;28.21;48.09
62508;BME280;48556;51.972;4.624;2022-08-19T11:11:57;101527.34;;;27.74;49.07
62508;BME280;48556;51.972;4.624;2022-08-19T11:14:23;101525.72;;;27.72;48.86
62508;BME280;48556;51.972;4.624;2022-08-19T11:16:52;101519.34;;;27.23;50.13
62508;BME280;48556;51.972;4.624;2022-08-19T11:19:25;101525.06;;;26.80;51.76
62508;BME280;48556;51.972;4.624;2022-08-19T11:21:53;101534.34;;;26.75;51.69
62508;BME280;48556;51.972;4.624;2022-08-19T11:24:30;101526.97;;;26.52;52.57
62508;BME280;48556;51.972;4.624;2022-08-19T11:27:03;101530.31;;;26.68;52.53
62508;BME280;48556;51.972;4.624;2022-08-19T11:29:33;101529.72;;;27.03;51.54
62508;BME280;48556;51.972;4.624;2022-08-19T11:32:00;101527.66;;;27.20;51.56
62508;BME280;48556;51.972;4.624;2022-08-19T11:34:29;101523.88;;;27.35;50.58
62508;BME280;48556;51.972;4.624;2022-08-19T11:37:01;101532.44;;;27.66;50.46
62508;BME280;48556;51.972;4.624;2022-08-19T11:39:29;101532.66;;;28.00;49.20
62508;BME280;48556;51.972;4.624;2022-08-19T11:41:57;101527.44;;;28.45;48.95
62508;BME280;48556;51.972;4.624;2022-08-19T11:44:23;101523.97;;;28.68;48.20
62508;BME280;48556;51.972;4.624;2022-08-19T11:49:56;101522.94;;;29.27;46.71
62508;BME280;48556;51.972;4.624;2022-08-19T11:52:22;101525.59;;;28.93;47.18
62508;BME280;48556;51.972;4.624;2022-08-19T11:54:48;101514.28;;;29.22;46.94
62508;BME280;48556;51.972;4.624;2022-08-19T11:57:14;101517.00;;;29.33;46.69
62508;BME280;48556;51.972;4.624;2022-08-19T11:59:47;101520.38;;;28.67;47.44
62508;BME280;48556;51.972;4.624;2022-08-19T12:02:12;101534.28;;;28.62;47.64
62508;BME280;48556;51.972;4.624;2022-08-19T12:04:49;101530.84;;;27.88;49.83
62508;BME280;48556;51.972;4.624;2022-08-19T12:07:37;101531.81;;;28.00;49.73
62508;BME280;48556;51.972;4.624;2022-08-19T12:10:25;101527.59;;;28.20;48.98
62508;BME280;48556;51.972;4.624;2022-08-19T12:13:21;101524.91;;;28.31;48.41
62508;BME280;48556;51.972;4.624;2022-08-19T12:16:07;101533.09;;;28.78;47.73
62508;BME280;48556;51.972;4.624;2022-08-19T12:18:36;101521.56;;;28.52;47.46
62508;BME280;48556;51.972;4.624;2022-08-19T12:24:27;101525.38;;;29.30;45.75
62508;BME280;48556;51.972;4.624;2022-08-19T12:27:04;101528.81;;;29.21;45.78
62508;BME280;48556;51.972;4.624;2022-08-19T12:29:34;101521.81;;;29.07;45.80
62508;BME280;48556;51.972;4.624;2022-08-19T12:32:08;101527.22;;;29.18;45.79
62508;BME280;48556;51.972;4.624;2022-08-19T12:34:34;101524.28;;;29.32;45.72
62508;BME280;48556;51.972;4.624;2022-08-19T12:37:04;101510.34;;;29.37;45.63
62508;BME280;48556;51.972;4.624;2022-08-19T12:39:41;101511.09;;;29.39;45.79
62508;BME280;48556;51.972;4.624;2022-08-19T12:42:12;101523.75;;;28.82;47.78
62508;BME280;48556;51.972;4.624;2022-08-19T12:44:40;101528.06;;;28.85;47.90
62508;BME280;48556;51.972;4.624;2022-08-19T12:47:10;101521.88;;;28.83;48.63
62508;BME280;48556;51.972;4.624;2022-08-19T12:49:37;101517.00;;;28.52;49.91
62508;BME280;48556;51.972;4.624;2022-08-19T12:52:44;101526.59;;;29.03;49.38
62508;BME280;48556;51.972;4.624;2022-08-19T12:55:17;101517.22;;;29.53;47.24
62508;BME280;48556;51.972;4.624;2022-08-19T12:57:44;101511.41;;;29.69;46.19
62508;BME280;48556;51.972;4.624;2022-08-19T13:00:19;101515.78;;;30.25;45.68
62508;BME280;48556;51.972;4.624;2022-08-19T13:02:49;101519.53;;;30.12;44.96
62508;BME280;48556;51.972;4.624;2022-08-19T13:05:19;101518.00;;;29.43;44.41
62508;BME280;48556;51.972;4.624;2022-08-19T13:07:51;101511.72;;;28.62;46.73
62508;BME280;48556;51.972;4.624;2022-08-19T13:10:21;101519.03;;;28.26;48.88
62508;BME280;48556;51.972;4.624;2022-08-19T13:12:50;101521.78;;;28.13;49.93
62508;BME280;48556;51.972;4.624;2022-08-19T13:15:18;101516.78;;;28.55;50.29
62508;BME280;48556;51.972;4.624;2022-08-19T13:18:03;101516.75;;;29.25;49.45
62508;BME280;48556;51.972;4.624;2022-08-19T13:20:32;101518.78;;;30.22;47.25
62508;BME280;48556;51.972;4.624;2022-08-19T13:22:57;101508.63;;;30.77;45.49
62508;BME280;48556;51.972;4.624;2022-08-19T13:25:26;101510.38;;;30.25;45.31
62508;BME280;48556;51.972;4.624;2022-08-19T13:27:52;101504.38;;;30.42;45.81
62508;BME280;48556;51.972;4.624;2022-08-19T13:30:24;101502.84;;;29.96;46.61
62508;BME280;48556;51.972;4.624;2022-08-19T13:33:09;101496.72;;;29.82;47.24
62508;BME280;48556;51.972;4.624;2022-08-19T13:35:48;101496.19;;;29.22;48.36
62508;BME280;48556;51.972;4.624;2022-08-19T13:38:18;101498.19;;;28.51;49.86
62508;BME280;48556;51.972;4.624;2022-08-19T13:40:44;101499.50;;;28.80;49.76